createdAt,value
2023-01-17T19:47:13.068Z,11.15
2023-01-17T19:49:42.481Z,15.50
2023-01-17T19:52:10.435Z,9.65
2023-01-17T19:54:37.783Z,9.18
2023-01-17T19:57:05.115Z,4.90
2023-01-17T19:59:32.581Z,6.28
2023-01-17T20:02:01.236Z,14.48
2023-01-17T20:04:28.918Z,8.07
2023-01-17T20:06:56.263Z,9.38
2023-01-17T20:09:25.100Z,6.10
2023-01-17T20:11:52.587Z,11.45
2023-01-17T20:14:20.153Z,8.93
2023-01-17T20:16:49.592Z,9.25
2023-01-17T20:19:17.123Z,7.35
2023-01-17T20:21:44.455Z,7.10
2023-01-17T20:24:13.581Z,7.57
2023-01-17T20:26:41.402Z,10.95
2023-01-17T20:29:13.593Z,8.10
2023-01-17T20:31:42.743Z,8.43
2023-01-17T20:34:13.571Z,7.32
2023-01-17T20:36:42.065Z,9.38
2023-01-17T20:39:12.749Z,7.20
2023-01-17T20:41:42.631Z,7.15
2023-01-17T20:44:12.880Z,7.25
2023-01-17T20:46:41.342Z,9.27
2023-01-17T20:49:14.759Z,8.10
2023-01-17T20:51:44.284Z,5.68
2023-01-17T20:54:14.990Z,9.07
2023-01-17T20:56:42.899Z,6.28
2023-01-17T20:59:16.430Z,8.07
2023-01-17T21:01:44.456Z,11.45
2023-01-17T21:04:12.941Z,8.55
2023-01-17T21:06:41.539Z,6.55
2023-01-17T21:09:13.049Z,6.97
2023-01-17T21:11:40.460Z,6.78
2023-01-17T21:14:08.257Z,7.05
2023-01-17T21:16:36.052Z,8.85
2023-01-17T21:19:03.857Z,7.10
2023-01-17T21:21:32.363Z,10.07
2023-01-17T21:23:59.987Z,8.77
2023-01-17T21:26:28.799Z,8.25
2023-01-17T21:28:58.121Z,7.28
2023-01-17T21:31:31.114Z,9.70
2023-01-17T21:34:01.088Z,11.35
2023-01-17T21:36:32.625Z,8.75
2023-01-17T21:39:04.789Z,7.75
2023-01-17T21:41:35.171Z,8.40
2023-01-17T21:44:07.932Z,8.65
2023-01-17T21:46:39.383Z,7.32
2023-01-17T21:49:10.629Z,8.70
2023-01-17T21:51:54.245Z,8.23
2023-01-17T21:54:45.047Z,8.82
2023-01-17T21:57:32.666Z,9.55
2023-01-17T22:00:00.041Z,8.27
2023-01-17T22:02:27.473Z,13.40
2023-01-17T22:04:56.223Z,10.40
2023-01-17T22:07:26.993Z,9.07
2023-01-17T22:09:54.821Z,8.40
2023-01-17T22:12:22.791Z,8.50
2023-01-17T22:14:50.314Z,10.05
2023-01-17T22:17:17.673Z,11.07
2023-01-17T22:19:46.059Z,11.60
2023-01-17T22:22:13.796Z,10.77
2023-01-17T22:24:41.344Z,10.23
2023-01-17T22:27:09.996Z,11.50
2023-01-17T22:29:37.744Z,11.48
2023-01-17T22:32:05.219Z,11.82
2023-01-17T22:34:32.585Z,13.07
2023-01-17T22:37:00.562Z,12.52
2023-01-17T22:39:27.927Z,13.88
2023-01-17T22:41:55.420Z,12.57
2023-01-17T22:44:22.785Z,14.30
2023-01-17T22:46:50.187Z,14.90
2023-01-17T22:49:18.532Z,14.98
2023-01-17T22:51:45.920Z,15.90
2023-01-17T22:54:13.299Z,13.57
2023-01-17T22:56:40.708Z,19.90
2023-01-17T22:59:11.579Z,16.30
2023-01-17T23:01:42.727Z,17.38
2023-01-17T23:04:13.894Z,17.92
2023-01-17T23:06:41.958Z,16.02
2023-01-17T23:09:15.204Z,18.60
2023-01-17T23:11:44.094Z,16.75
2023-01-17T23:14:18.680Z,19.02
2023-01-17T23:17:10.553Z,18.02
2023-01-17T23:19:40.415Z,17.02
2023-01-17T23:22:16.799Z,19.23
2023-01-17T23:24:50.440Z,20.60
2023-01-17T23:27:41.025Z,20.35
2023-01-17T23:30:27.980Z,19.08
2023-01-17T23:33:00.475Z,19.30
2023-01-17T23:35:31.518Z,19.88
2023-01-17T23:38:18.404Z,20.27
2023-01-17T23:41:04.810Z,22.60
2023-01-17T23:43:33.285Z,21.20
2023-01-17T23:46:01.425Z,23.45
2023-01-17T23:48:28.843Z,21.40
2023-01-17T23:51:09.508Z,22.45
2023-01-17T23:53:38.956Z,26.17
2023-01-17T23:56:26.674Z,22.35
2023-01-17T23:58:54.068Z,22.70
